Portscatho, United Kingdom
Current Conditions -  °F | °C
As of 1:50 PM on Monday 24 Nov 2014 (Local Time) from EGDR Reporting Station
Few Clouds Few Clouds  
Wind Chill: 45°   Ceiling: Unl
Heat Index: 48°   Visibility: 6mi
Dew Point: 34°   Wind: 7mph
Humidity: 57%   Direction: 60°ENE
Pressure: 30.3"   Gusts: NA
Location:  50.17°N, 4.97°W
Report Text: EGDR 241350Z 06006KT 9999 FEW024 09/01 Q1026 BLU NOSIG
Loading
Personal Weather Stations






























Interactive Weather Map New forecast layout! Learn more

10-Day Weather Forecast

Advertisements
Track Severe Weather on mobile